Time;durP1;ratioP1;P1;durP2;ratioP2;P2;SDS_P1;SDS_P2;PMS_P1;PMS_P2;Temp;Humidity;BMP_temperature;BMP_pressure;BME280_temperature;BME280_humidity;BME280_pressure;Samples;Min_cycle;Max_cycle;Signal;HPM_P1;HPM_P2
2023/08/03 00:01:26;;;;;;;1.27;0.90;;;;;;;22.39;76.07;99091.97;5047361;27;98609;-73
2023/08/03 00:03:53;;;;;;;1.38;0.82;;;;;;;22.40;76.32;99092.81;5051974;27;96807;-73
2023/08/03 00:06:19;;;;;;;3.10;1.13;;;;;;;22.41;76.17;99091.81;5052634;27;97147;-73
2023/08/03 00:08:45;;;;;;;2.10;1.00;;;;;;;22.60;75.09;99096.84;5049711;27;98157;-73
2023/08/03 00:11:12;;;;;;;2.50;1.25;;;;;;;22.43;74.93;99089.81;5054398;27;98566;-73
2023/08/03 00:13:40;;;;;;;2.30;1.00;;;;;;;22.41;74.81;99098.03;5051989;27;96917;-71
2023/08/03 00:16:06;;;;;;;5.78;0.90;;;;;;;22.47;74.66;99105.44;5055579;27;96777;-70
2023/08/03 00:18:33;;;;;;;1.88;1.00;;;;;;;22.35;74.78;99108.63;5050191;27;99219;-72
2023/08/03 00:20:59;;;;;;;3.08;0.70;;;;;;;22.29;74.56;99102.09;5058007;27;98819;-73
2023/08/03 00:23:26;;;;;;;3.50;0.90;;;;;;;22.28;73.94;99103.09;5052200;27;97432;-72
2023/08/03 00:25:52;;;;;;;1.90;0.88;;;;;;;22.19;74.64;99112.16;5060708;27;96648;-72
2023/08/03 00:28:21;;;;;;;1.77;1.10;;;;;;;22.30;74.15;99111.84;5050118;27;99217;-72
2023/08/03 00:30:48;;;;;;;3.45;1.00;;;;;;;22.19;74.12;99115.69;5050624;27;98860;-72
2023/08/03 00:33:15;;;;;;;1.40;0.70;;;;;;;22.15;74.46;99125.09;5055766;27;97076;-73
2023/08/03 00:35:41;;;;;;;2.38;1.13;;;;;;;22.29;74.04;99125.44;5060812;27;96813;-73
2023/08/03 00:38:08;;;;;;;0.80;0.75;;;;;;;22.14;74.85;99120.72;5044214;27;99047;-73
2023/08/03 00:40:35;;;;;;;2.53;0.65;;;;;;;22.04;74.40;99117.38;5050026;27;98050;-72
2023/08/03 00:43:04;;;;;;;1.77;1.08;;;;;;;21.97;75.51;99108.28;5049439;27;96788;-69
2023/08/03 00:45:30;;;;;;;1.88;0.85;;;;;;;21.83;75.75;99115.13;5050690;27;98742;-69
2023/08/03 00:47:58;;;;;;;1.13;0.75;;;;;;;21.96;75.57;99113.81;5051928;27;99099;-70
2023/08/03 00:50:26;;;;;;;2.25;1.00;;;;;;;22.07;75.11;99132.31;5051634;27;98437;-70
2023/08/03 00:52:53;;;;;;;0.85;0.60;;;;;;;21.84;75.83;99132.94;5055920;27;96761;-69
2023/08/03 00:55:19;;;;;;;1.90;0.80;;;;;;;21.99;75.56;99125.06;5046555;27;97032;-69
2023/08/03 00:57:45;;;;;;;0.88;0.88;;;;;;;22.19;74.88;99122.91;5052860;27;98943;-69
2023/08/03 01:00:13;;;;;;;3.00;1.00;;;;;;;22.07;75.19;99116.19;5048262;27;99027;-69
2023/08/03 01:02:39;;;;;;;1.25;0.80;;;;;;;22.09;75.39;99114.19;5050791;27;96653;-69
2023/08/03 01:05:07;;;;;;;2.45;0.80;;;;;;;22.07;75.44;99124.25;5046313;27;97029;-69
2023/08/03 01:07:34;;;;;;;2.65;1.02;;;;;;;22.16;75.22;99125.97;5053131;27;99059;-70
2023/08/03 01:10:00;;;;;;;2.10;0.90;;;;;;;21.98;76.02;99127.97;5050133;27;97636;-70
2023/08/03 01:12:27;;;;;;;3.15;1.13;;;;;;;22.09;75.53;99125.78;5052098;27;97353;-70
2023/08/03 01:14:54;;;;;;;1.67;0.90;;;;;;;22.01;76.08;99130.28;5049598;27;97778;-72
2023/08/03 01:17:21;;;;;;;1.85;0.80;;;;;;;22.17;75.18;99130.34;5058203;27;98800;-70
2023/08/03 01:19:48;;;;;;;2.15;0.90;;;;;;;22.17;75.22;99133.88;5048379;27;99721;-70
2023/08/03 01:22:17;;;;;;;1.58;0.82;;;;;;;22.11;75.32;99131.00;5052506;27;96898;-69
2023/08/03 01:24:45;;;;;;;2.75;0.88;;;;;;;22.05;75.82;99134.34;5048387;27;97478;-70
2023/08/03 01:27:12;;;;;;;2.42;1.10;;;;;;;22.30;74.80;99145.97;5053872;27;100042;-70
2023/08/03 01:29:38;;;;;;;1.63;0.88;;;;;;;22.17;75.45;99151.84;5049697;27;99036;-70
2023/08/03 01:32:05;;;;;;;1.98;1.10;;;;;;;22.38;74.17;99154.91;5049371;27;96842;-70
2023/08/03 01:34:32;;;;;;;3.63;1.17;;;;;;;22.17;74.77;99144.63;5050596;27;98026;-70
2023/08/03 01:36:58;;;;;;;1.85;0.90;;;;;;;22.05;75.73;99145.97;5054077;27;99099;-70
2023/08/03 01:39:26;;;;;;;3.55;1.05;;;;;;;22.20;75.25;99159.56;5053766;27;99559;-72
2023/08/03 01:41:53;;;;;;;1.80;0.80;;;;;;;22.08;74.94;99150.16;5043415;27;100590;-72
2023/08/03 01:44:26;;;;;;;5.88;1.30;;;;;;;21.97;75.79;99170.13;5049338;27;99330;-70
2023/08/03 01:46:53;;;;;;;3.20;1.02;;;;;;;22.03;75.57;99179.41;5052813;27;101968;-70
2023/08/03 01:49:20;;;;;;;4.85;1.20;;;;;;;21.87;75.92;99178.31;5058145;27;98779;-71
2023/08/03 01:51:47;;;;;;;1.67;0.60;;;;;;;21.95;76.31;99180.19;5047915;27;97083;-72
2023/08/03 01:54:14;;;;;;;3.67;1.63;;;;;;;21.82;76.94;99185.19;5051724;27;97762;-71
2023/08/03 01:56:40;;;;;;;2.08;1.10;;;;;;;21.83;77.08;99190.41;5052145;27;98856;-71
2023/08/03 01:59:08;;;;;;;2.78;1.20;;;;;;;21.68;77.77;99193.88;5051301;27;97477;-72
2023/08/03 02:01:35;;;;;;;5.00;1.30;;;;;;;21.71;77.45;99212.38;5053142;27;96859;-72
2023/08/03 02:04:01;;;;;;;2.25;1.40;;;;;;;21.80;77.20;99211.38;5058608;27;97175;-72
2023/08/03 02:06:28;;;;;;;3.03;1.23;;;;;;;21.88;77.05;99209.56;5053384;27;98487;-72
2023/08/03 02:08:54;;;;;;;4.15;1.20;;;;;;;21.74;77.86;99207.50;5051012;27;96886;-72
2023/08/03 02:11:20;;;;;;;2.83;1.05;;;;;;;21.67;78.64;99209.16;5051153;27;97017;-72
2023/08/03 02:13:47;;;;;;;9.10;1.30;;;;;;;21.79;77.84;99205.16;5055209;27;96885;-73
2023/08/03 02:16:15;;;;;;;7.18;1.10;;;;;;;21.94;77.58;99202.69;5049903;27;99302;-71
2023/08/03 02:18:41;;;;;;;4.55;1.10;;;;;;;21.74;78.22;99206.66;5047884;27;101206;-72
2023/08/03 02:21:08;;;;;;;2.67;1.23;;;;;;;21.86;78.19;99200.81;5054916;27;97750;-72
2023/08/03 02:23:34;;;;;;;5.28;1.65;;;;;;;21.86;77.90;99198.13;5058319;27;97546;-71
2023/08/03 02:26:02;;;;;;;5.25;1.30;;;;;;;22.00;77.56;99194.00;5046041;27;98855;-70
2023/08/03 02:28:29;;;;;;;2.35;1.27;;;;;;;22.07;77.09;99197.72;5051362;27;98922;-71
2023/08/03 02:30:59;;;;;;;6.53;1.73;;;;;;;21.86;77.72;99195.44;5052122;27;96763;-71
2023/08/03 02:33:27;;;;;;;4.38;1.02;;;;;;;22.00;77.13;99199.38;5059866;27;96838;-72
2023/08/03 02:35:54;;;;;;;2.40;1.15;;;;;;;22.14;76.20;99200.59;5052934;27;99195;-72
2023/08/03 02:38:21;;;;;;;5.25;1.00;;;;;;;21.96;77.00;99205.25;5054962;27;98080;-72
2023/08/03 02:40:48;;;;;;;1.85;1.00;;;;;;;21.94;77.45;99197.31;5047577;27;99444;-71
2023/08/03 02:43:15;;;;;;;2.30;1.30;;;;;;;22.15;76.99;99199.59;5054488;27;102004;-71
2023/08/03 02:45:41;;;;;;;2.83;1.40;;;;;;;22.20;76.46;99199.94;5059544;27;97642;-71
2023/08/03 02:48:09;;;;;;;8.38;1.35;;;;;;;22.17;76.45;99198.44;5054749;27;96748;-71
2023/08/03 02:50:37;;;;;;;0.90;0.90;;;;;;;22.09;77.13;99194.88;5052510;27;96845;-72
2023/08/03 02:53:07;;;;;;;3.35;1.27;;;;;;;22.01;77.98;99197.53;5056255;27;97301;-72
2023/08/03 02:55:33;;;;;;;4.35;1.52;;;;;;;21.95;77.83;99196.31;5048731;27;97792;-70
2023/08/03 02:57:59;;;;;;;3.28;1.25;;;;;;;22.20;76.98;99190.00;5047236;27;97551;-71
2023/08/03 03:00:26;;;;;;;2.05;1.40;;;;;;;21.82;79.01;99187.88;5045965;27;98817;-70
2023/08/03 03:02:52;;;;;;;4.15;1.50;;;;;;;21.59;80.03;99182.28;5050507;27;96756;-70
2023/08/03 03:05:19;;;;;;;3.22;1.27;;;;;;;21.76;79.47;99199.28;5053509;27;101969;-70
2023/08/03 03:07:46;;;;;;;2.40;1.15;;;;;;;21.72;79.58;99187.19;5047615;27;99355;-71
2023/08/03 03:10:14;;;;;;;4.65;1.27;;;;;;;22.04;78.32;99186.47;5049298;27;98737;-72
2023/08/03 03:12:40;;;;;;;2.83;1.45;;;;;;;21.98;78.57;99189.81;5046818;27;96942;-72
2023/08/03 03:15:08;;;;;;;8.13;1.95;;;;;;;21.85;78.70;99183.03;5049827;27;98200;-72
2023/08/03 03:17:34;;;;;;;3.85;1.45;;;;;;;22.14;78.00;99182.59;5050093;27;101613;-70
2023/08/03 03:20:01;;;;;;;2.53;1.10;;;;;;;22.00;77.77;99187.78;5051239;27;98854;-71
2023/08/03 03:22:27;;;;;;;2.42;1.35;;;;;;;22.16;77.46;99185.13;5050066;27;98064;-71
2023/08/03 03:24:55;;;;;;;2.17;1.20;;;;;;;21.98;77.74;99176.38;5058571;27;98835;-70
2023/08/03 03:27:23;;;;;;;2.20;1.27;;;;;;;22.24;76.43;99177.94;5054127;27;98812;-71
2023/08/03 03:29:51;;;;;;;4.07;1.20;;;;;;;22.08;76.98;99187.81;5049078;27;96748;-72
2023/08/03 03:32:18;;;;;;;4.28;1.25;;;;;;;22.07;77.36;99191.50;5051949;27;97576;-71
2023/08/03 03:34:44;;;;;;;3.53;1.20;;;;;;;21.97;77.52;99198.88;5058301;27;98692;-71
2023/08/03 03:37:11;;;;;;;2.13;1.40;;;;;;;21.85;78.21;99199.16;5056280;27;101922;-71
2023/08/03 03:39:37;;;;;;;4.82;1.17;;;;;;;22.05;77.18;99193.53;5049641;27;98212;-71
2023/08/03 03:42:06;;;;;;;1.90;1.13;;;;;;;21.91;77.70;99197.66;5053061;27;97045;-71
2023/08/03 03:44:34;;;;;;;4.45;1.40;;;;;;;21.98;77.45;99198.72;5051202;27;98049;-71
2023/08/03 03:47:00;;;;;;;2.95;1.35;;;;;;;21.73;78.51;99184.31;5048329;27;99203;-71
2023/08/03 03:49:26;;;;;;;4.78;1.23;;;;;;;22.08;77.23;99188.66;5058369;27;97063;-71
2023/08/03 03:51:55;;;;;;;3.95;1.20;;;;;;;22.01;76.79;99189.47;5054061;27;96717;-70
2023/08/03 03:54:21;;;;;;;2.63;1.25;;;;;;;21.84;78.07;99185.88;5050575;27;99259;-71
2023/08/03 03:56:48;;;;;;;4.25;1.17;;;;;;;21.77;77.83;99196.44;5051504;27;98337;-71
2023/08/03 03:59:17;;;;;;;7.13;1.98;;;;;;;21.76;77.79;99192.06;5057088;27;96887;-71
2023/08/03 04:01:43;;;;;;;3.65;1.35;;;;;;;21.75;77.72;99186.84;5058117;27;96821;-71
2023/08/03 04:04:10;;;;;;;2.55;1.38;;;;;;;21.80;76.98;99184.50;5052151;27;98648;-71
2023/08/03 04:06:40;;;;;;;3.35;1.33;;;;;;;22.06;76.13;99187.13;5049646;27;100091;-70
2023/08/03 04:09:07;;;;;;;5.47;1.30;;;;;;;21.85;76.08;99183.03;5043643;27;96866;-72
2023/08/03 04:11:36;;;;;;;6.05;1.80;;;;;;;22.18;75.42;99183.13;5054089;27;96877;-71
2023/08/03 04:14:03;;;;;;;5.15;1.48;;;;;;;22.01;75.30;99187.63;5050247;27;98140;-71
2023/08/03 04:16:31;;;;;;;5.82;1.48;;;;;;;22.03;75.26;99177.53;5048908;27;100869;-74
2023/08/03 04:19:03;;;;;;;14.23;1.80;;;;;;;21.94;75.64;99186.56;5049649;27;97150;-71
2023/08/03 04:21:30;;;;;;;10.02;1.65;;;;;;;22.24;74.39;99186.00;5051996;27;99102;-71
2023/08/03 04:23:57;;;;;;;4.32;1.25;;;;;;;22.37;73.69;99177.44;5049041;27;98948;-73
2023/08/03 04:26:26;;;;;;;5.30;1.30;;;;;;;22.17;74.12;99184.97;5052654;27;98312;-71
2023/08/03 04:28:56;;;;;;;6.88;1.88;;;;;;;22.29;73.66;99187.34;5044042;27;97517;-72
2023/08/03 04:31:27;;;;;;;4.82;1.67;;;;;;;22.33;72.97;99186.81;5049726;27;96923;-72
2023/08/03 04:33:55;;;;;;;8.38;2.00;;;;;;;22.42;72.53;99191.22;5042573;27;99894;-72
2023/08/03 04:36:23;;;;;;;8.10;1.80;;;;;;;22.31;72.73;99186.19;5056252;27;99376;-71
2023/08/03 04:38:50;;;;;;;6.13;1.23;;;;;;;22.11;73.49;99191.03;5052651;27;96751;-71
2023/08/03 04:41:16;;;;;;;5.80;1.58;;;;;;;22.33;72.73;99186.81;5045371;27;97032;-71
2023/08/03 04:43:44;;;;;;;6.32;1.45;;;;;;;22.34;72.27;99187.66;5051984;27;101774;-71
2023/08/03 04:46:11;;;;;;;7.07;1.52;;;;;;;22.38;71.33;99195.25;5049250;27;99811;-72
2023/08/03 04:48:39;;;;;;;7.15;1.45;;;;;;;22.34;71.86;99185.81;5059305;27;98030;-71
2023/08/03 04:51:08;;;;;;;11.55;1.75;;;;;;;22.41;71.01;99188.69;5050694;27;96793;-71
2023/08/03 04:53:35;;;;;;;8.88;1.35;;;;;;;22.49;70.71;99184.16;5046360;27;101210;-71
2023/08/03 04:56:02;;;;;;;7.65;1.20;;;;;;;22.42;70.52;99180.47;5046530;27;102073;-71
2023/08/03 04:58:31;;;;;;;6.47;1.50;;;;;;;22.44;70.32;99178.44;5051292;27;96987;-71
2023/08/03 05:01:00;;;;;;;7.03;1.67;;;;;;;22.65;69.39;99181.44;5046206;27;96874;-71
2023/08/03 05:03:27;;;;;;;5.30;1.40;;;;;;;22.94;68.31;99174.72;5050518;27;101443;-71
2023/08/03 05:05:53;;;;;;;8.18;1.30;;;;;;;22.73;68.50;99180.66;5052756;27;96867;-72
2023/08/03 05:08:22;;;;;;;6.57;1.85;;;;;;;22.78;68.13;99180.13;5048271;27;97163;-72
2023/08/03 05:10:49;;;;;;;6.93;1.67;;;;;;;22.61;68.27;99179.28;5048988;27;97239;-72
2023/08/03 05:13:17;;;;;;;6.95;1.45;;;;;;;22.59;68.03;99182.13;5053770;27;100231;-72
2023/08/03 05:15:43;;;;;;;6.00;1.38;;;;;;;22.55;68.47;99166.50;5051104;27;99010;-73
2023/08/03 05:18:10;;;;;;;9.35;1.52;;;;;;;22.75;68.35;99173.25;5049799;27;96774;-72
2023/08/03 05:20:36;;;;;;;8.55;1.92;;;;;;;23.03;66.38;99168.34;5051957;27;98003;-73
2023/08/03 05:23:05;;;;;;;6.57;1.13;;;;;;;23.34;64.89;99169.25;5047265;27;98707;-71
2023/08/03 05:25:32;;;;;;;10.05;1.80;;;;;;;23.53;64.87;99172.56;5040462;27;98768;-71
2023/08/03 05:27:59;;;;;;;10.00;1.70;;;;;;;23.56;63.93;99174.94;5047276;27;96879;-72
2023/08/03 05:30:25;;;;;;;9.50;1.63;;;;;;;23.37;64.29;99170.72;5050789;27;97030;-72
2023/08/03 05:32:53;;;;;;;9.82;1.83;;;;;;;23.50;63.93;99172.94;5052674;27;99071;-72
2023/08/03 05:35:19;;;;;;;9.93;1.60;;;;;;;23.57;63.23;99177.44;5058241;27;97550;-72
2023/08/03 05:37:46;;;;;;;6.57;1.98;;;;;;;23.62;62.54;99183.16;5044890;27;96980;-72
2023/08/03 05:40:13;;;;;;;10.95;1.85;;;;;;;23.74;61.97;99180.91;5053494;27;97950;-71
2023/08/03 05:42:42;;;;;;;7.90;1.83;;;;;;;24.14;60.93;99186.09;5041700;27;99167;-71
2023/08/03 05:45:12;;;;;;;7.45;1.55;;;;;;;23.82;61.19;99194.38;5054195;27;98731;-71
2023/08/03 05:47:39;;;;;;;8.98;1.60;;;;;;;23.76;61.30;99189.69;5048230;27;96810;-71
2023/08/03 05:50:12;;;;;;;9.70;1.50;;;;;;;23.64;61.25;99199.13;5050956;27;96899;-70
2023/08/03 05:52:39;;;;;;;6.55;1.38;;;;;;;23.53;62.30;99197.69;5045290;27;99866;-71
2023/08/03 05:55:10;;;;;;;7.13;1.63;;;;;;;23.25;62.79;99186.44;5044058;27;100389;-71
2023/08/03 05:57:36;;;;;;;5.50;1.40;;;;;;;23.70;61.11;99171.47;5050502;27;96698;-71
2023/08/03 06:00:12;;;;;;;8.13;1.60;;;;;;;23.75;60.99;99182.59;5055310;27;96698;-72
2023/08/03 06:02:40;;;;;;;10.48;1.70;;;;;;;23.95;59.88;99191.94;5049706;27;97580;-72
2023/08/03 06:05:07;;;;;;;8.90;1.60;;;;;;;24.26;58.97;99202.72;5050931;27;101597;-72
2023/08/03 06:07:34;;;;;;;10.35;1.83;;;;;;;24.00;59.08;99189.53;5050989;27;96967;-72
2023/08/03 06:10:00;;;;;;;12.90;1.40;;;;;;;24.33;58.39;99194.75;5056568;27;96757;-71
2023/08/03 06:12:26;;;;;;;5.10;1.48;;;;;;;24.36;57.81;99186.28;5052517;27;99369;-71
2023/08/03 06:14:53;;;;;;;6.43;1.60;;;;;;;24.36;58.13;99180.88;5056314;27;98076;-71
2023/08/03 06:17:29;;;;;;;10.15;1.60;;;;;;;24.44;58.31;99180.81;5052797;27;96777;-72
2023/08/03 06:19:56;;;;;;;;;;;;;;;24.44;57.46;99187.06;5051315;27;97019;-71
2023/08/03 06:22:23;;;;;;;6.75;1.52;;;;;;;24.75;56.79;99189.69;5046762;27;98842;-71
2023/08/03 06:24:50;;;;;;;6.35;1.73;;;;;;;24.41;57.12;99190.16;5047000;27;97752;-72
2023/08/03 06:27:17;;;;;;;5.45;1.30;;;;;;;24.34;56.83;99194.59;5053249;27;97742;-71
2023/08/03 06:29:44;;;;;;;7.93;1.50;;;;;;;24.48;56.40;99187.56;5053299;27;97438;-71
2023/08/03 06:32:22;;;;;;;6.50;1.20;;;;;;;24.91;55.74;99194.97;5054263;27;96929;-71
2023/08/03 06:34:50;;;;;;;6.82;1.20;;;;;;;24.85;54.75;99203.78;5049859;27;97637;-70
2023/08/03 06:37:17;;;;;;;7.05;1.58;;;;;;;25.17;54.62;99208.06;5047484;27;98085;-72
2023/08/03 06:39:43;;;;;;;6.90;1.58;;;;;;;24.99;54.85;99203.00;5052901;27;97559;-71
2023/08/03 06:42:10;;;;;;;5.90;1.48;;;;;;;24.95;54.20;99201.69;5049068;27;99513;-71
2023/08/03 06:44:36;;;;;;;6.90;1.60;;;;;;;25.24;53.72;99194.66;5054575;27;98821;-71
2023/08/03 06:47:03;;;;;;;5.78;1.00;;;;;;;25.54;53.12;99209.84;5041111;27;96927;-70
2023/08/03 06:49:31;;;;;;;3.05;1.10;;;;;;;25.57;52.52;99212.22;5048913;27;98646;-70
2023/08/03 06:51:59;;;;;;;7.53;1.13;;;;;;;25.49;52.50;99211.44;5042529;27;99246;-71
2023/08/03 06:54:26;;;;;;;5.40;1.38;;;;;;;25.50;51.79;99210.41;5045862;27;98774;-71
2023/08/03 06:56:53;;;;;;;5.75;1.23;;;;;;;25.59;52.08;99214.75;5054428;27;99702;-71
2023/08/03 06:59:21;;;;;;;7.38;1.15;;;;;;;25.35;51.70;99218.50;5052908;27;97321;-71
2023/08/03 07:01:49;;;;;;;4.43;1.08;;;;;;;25.26;52.25;99216.94;5042645;27;101335;-71
2023/08/03 07:04:15;;;;;;;4.65;1.23;;;;;;;25.36;51.94;99236.41;5053232;27;98256;-71
2023/08/03 07:06:42;;;;;;;6.05;1.35;;;;;;;25.07;51.94;99226.41;5050022;27;96769;-72
2023/08/03 07:09:09;;;;;;;5.32;0.75;;;;;;;24.89;52.35;99228.56;5059040;27;96760;-71
2023/08/03 07:11:37;;;;;;;5.47;1.10;;;;;;;24.70;52.87;99227.19;5045283;27;99227;-71
2023/08/03 07:14:03;;;;;;;4.15;1.23;;;;;;;24.94;52.48;99231.63;5046941;27;99010;-70
2023/08/03 07:16:29;;;;;;;3.72;1.13;;;;;;;25.09;52.26;99242.44;5044678;27;101729;-71
2023/08/03 07:18:56;;;;;;;6.47;1.00;;;;;;;25.12;51.74;99242.91;5048884;27;96883;-71
2023/08/03 07:21:22;;;;;;;5.00;1.13;;;;;;;25.11;51.70;99245.78;5046003;27;98792;-72
2023/08/03 07:23:51;;;;;;;5.47;1.20;;;;;;;25.04;52.47;99250.25;5046506;27;99516;-71
2023/08/03 07:26:18;;;;;;;5.68;1.00;;;;;;;24.94;52.56;99256.75;5050896;27;97170;-72
2023/08/03 07:28:45;;;;;;;12.35;1.20;;;;;;;24.74;52.53;99263.66;5044103;27;97072;-70
2023/08/03 07:31:14;;;;;;;5.28;0.95;;;;;;;24.93;52.87;99254.25;5044743;27;99256;-73
2023/08/03 07:33:41;;;;;;;5.78;1.15;;;;;;;25.03;52.05;99260.22;5048418;27;98790;-74
2023/08/03 07:36:07;;;;;;;5.90;1.13;;;;;;;25.01;52.12;99265.81;5052092;27;96700;-73
2023/08/03 07:38:34;;;;;;;6.97;1.15;;;;;;;25.07;52.24;99258.00;5048967;27;96737;-72
2023/08/03 07:41:00;;;;;;;4.03;0.75;;;;;;;25.00;51.85;99264.16;5050257;27;98842;-71
2023/08/03 07:43:28;;;;;;;5.75;1.00;;;;;;;25.19;50.95;99260.09;5036658;27;98967;-70
2023/08/03 07:45:54;;;;;;;10.75;1.55;;;;;;;25.45;50.35;99265.06;5038812;27;96851;-69
2023/08/03 07:48:21;;;;;;;7.55;0.93;;;;;;;25.42;50.12;99262.72;5041286;27;96869;-70
2023/08/03 07:50:47;;;;;;;3.22;1.00;;;;;;;25.05;50.36;99269.00;5043289;27;99064;-70
2023/08/03 07:53:14;;;;;;;1.50;0.80;;;;;;;25.28;50.01;99268.94;5043702;27;97679;-70
2023/08/03 07:55:40;;;;;;;4.22;0.70;;;;;;;24.98;50.92;99273.44;5046471;27;97105;-70
2023/08/03 07:58:06;;;;;;;6.70;1.00;;;;;;;25.13;49.98;99268.94;5047070;27;99039;-70
2023/08/03 08:00:34;;;;;;;2.53;1.05;;;;;;;25.68;49.10;99265.84;5041768;27;98861;-70
2023/08/03 08:03:01;;;;;;;2.20;0.50;;;;;;;25.75;48.70;99269.47;5039899;27;99731;-70
2023/08/03 08:05:27;;;;;;;3.65;0.70;;;;;;;25.89;48.07;99266.94;5043767;27;96708;-71
2023/08/03 08:07:54;;;;;;;4.82;0.90;;;;;;;26.17;47.81;99266.09;5039272;27;102414;-71
2023/08/03 08:10:21;;;;;;;4.35;0.75;;;;;;;26.11;47.16;99274.13;5043684;27;99207;-71
2023/08/03 08:12:47;;;;;;;5.53;0.70;;;;;;;25.98;47.85;99263.97;5044920;27;97605;-71
2023/08/03 08:15:14;;;;;;;3.85;1.05;;;;;;;26.23;46.40;99259.06;5041659;27;99172;-71
2023/08/03 08:17:41;;;;;;;3.08;0.73;;;;;;;25.98;47.08;99266.69;5050386;27;96816;-71
2023/08/03 08:20:09;;;;;;;4.00;0.80;;;;;;;26.09;46.94;99271.59;5045402;27;98771;-71
2023/08/03 08:22:35;;;;;;;3.92;1.00;;;;;;;26.07;47.20;99272.78;5039594;27;98892;-72
2023/08/03 08:25:02;;;;;;;3.00;0.70;;;;;;;26.24;46.68;99273.44;5045396;27;97658;-72
2023/08/03 08:27:28;;;;;;;2.60;0.52;;;;;;;25.91;46.85;99278.44;5045660;27;97717;-71
2023/08/03 08:29:54;;;;;;;2.35;0.55;;;;;;;25.63;47.16;99280.94;5045560;27;98932;-72
2023/08/03 08:32:21;;;;;;;3.90;0.82;;;;;;;25.69;47.30;99270.22;5039004;27;98967;-70
2023/08/03 08:34:48;;;;;;;2.55;0.63;;;;;;;25.67;47.91;99288.50;5042353;27;96794;-71
2023/08/03 08:37:15;;;;;;;5.45;0.93;;;;;;;25.90;47.85;99288.41;5046405;27;97237;-72
2023/08/03 08:39:41;;;;;;;6.00;0.60;;;;;;;25.90;47.22;99288.41;5046769;27;101299;-71
2023/08/03 08:42:12;;;;;;;3.58;0.70;;;;;;;26.22;46.29;99287.16;5046177;27;98894;-72
2023/08/03 08:44:38;;;;;;;0.73;0.35;;;;;;;26.08;46.78;99285.31;5047272;27;97503;-72
2023/08/03 08:47:06;;;;;;;2.05;0.30;;;;;;;26.06;46.48;99288.19;5051414;27;97145;-72
2023/08/03 08:49:32;;;;;;;2.30;0.43;;;;;;;26.04;46.17;99294.84;5048294;27;98856;-71
2023/08/03 08:52:02;;;;;;;1.00;0.30;;;;;;;25.85;46.98;99290.84;5038844;27;99333;-72
2023/08/03 08:54:31;;;;;;;2.42;0.30;;;;;;;25.78;46.90;99312.41;5042555;27;99242;-72
2023/08/03 08:56:57;;;;;;;1.20;0.50;;;;;;;25.93;46.54;99303.44;5046922;27;98831;-71
2023/08/03 08:59:26;;;;;;;0.98;0.40;;;;;;;25.49;47.16;99290.69;5045735;27;99346;-72
2023/08/03 09:01:54;;;;;;;2.10;0.25;;;;;;;25.47;46.95;99297.34;5046452;27;101314;-71
2023/08/03 09:04:30;;;;;;;3.25;0.38;;;;;;;26.34;45.47;99303.78;5048673;27;97840;-71
2023/08/03 09:06:57;;;;;;;4.80;0.47;;;;;;;26.61;45.66;99292.22;5054455;27;96759;-71
2023/08/03 09:09:32;;;;;;;4.53;0.68;;;;;;;26.69;45.30;99308.38;5052278;27;102005;-70
2023/08/03 09:11:58;;;;;;;0.75;0.30;;;;;;;26.38;44.94;99319.47;5049119;27;100421;-70
2023/08/03 09:14:25;;;;;;;1.90;0.50;;;;;;;26.50;43.90;99317.94;5054898;27;98386;-71
2023/08/03 09:16:51;;;;;;;0.73;0.22;;;;;;;26.27;44.73;99308.28;5054407;27;97249;-72
2023/08/03 09:19:45;;;;;;;1.17;0.30;;;;;;;26.80;44.15;99301.59;5049595;27;99202;-71
2023/08/03 09:22:11;;;;;;;3.53;0.50;;;;;;;27.32;43.86;99307.53;5005628;27;99319;-72
2023/08/03 09:24:39;;;;;;;0.90;0.30;;;;;;;27.87;42.67;99311.28;5044536;27;99674;-71
2023/08/03 09:27:06;;;;;;;6.88;0.50;;;;;;;28.21;41.19;99309.63;5046722;27;98862;-71
2023/08/03 09:29:34;;;;;;;3.50;0.30;;;;;;;28.12;41.72;99317.03;5040445;27;98893;-71
2023/08/03 09:32:02;;;;;;;2.92;0.35;;;;;;;27.92;41.57;99316.94;5049708;27;98931;-72
2023/08/03 09:34:36;;;;;;;2.40;0.60;;;;;;;27.68;42.08;99323.69;5044896;27;96843;-71
2023/08/03 09:37:04;;;;;;;1.63;0.65;;;;;;;27.43;43.18;99310.75;5049573;27;98416;-72
2023/08/03 09:39:32;;;;;;;9.27;0.95;;;;;;;27.42;43.30;99314.50;5049106;27;99405;-71
2023/08/03 09:42:03;;;;;;;4.32;0.40;;;;;;;27.36;43.73;99311.53;5052915;27;98800;-71
2023/08/03 09:44:30;;;;;;;12.25;2.45;;;;;;;27.07;43.63;99324.41;5047429;27;98391;-70
2023/08/03 09:46:57;;;;;;;3.85;0.95;;;;;;;26.56;44.34;99352.41;5043576;27;96816;-71
2023/08/03 09:49:25;;;;;;;1.02;0.43;;;;;;;26.21;45.13;99331.50;5048467;27;99145;-71
2023/08/03 09:51:53;;;;;;;5.72;0.40;;;;;;;25.74;46.28;99329.16;5046090;27;99193;-71
2023/08/03 09:54:28;;;;;;;1.35;0.30;;;;;;;25.99;46.56;99332.47;5042296;27;98892;-72
2023/08/03 09:56:59;;;;;;;1.40;0.20;;;;;;;26.12;45.56;99343.47;5052582;27;97100;-72
2023/08/03 09:59:33;;;;;;;1.60;0.32;;;;;;;25.59;46.36;99315.66;5047512;27;99524;-72
2023/08/03 10:02:02;;;;;;;8.00;0.82;;;;;;;25.60;46.74;99328.13;5053249;27;98917;-71
2023/08/03 10:04:31;;;;;;;1.42;0.43;;;;;;;25.77;46.45;99331.53;5054565;27;97083;-72
2023/08/03 10:07:02;;;;;;;0.93;0.50;;;;;;;26.18;45.93;99334.59;5050906;27;96951;-71
2023/08/03 10:09:34;;;;;;;6.03;0.40;;;;;;;26.24;45.42;99328.47;5057810;27;99395;-72
2023/08/03 10:12:06;;;;;;;0.75;0.40;;;;;;;26.58;44.75;99325.94;5049080;27;98839;-72
2023/08/03 10:14:38;;;;;;;1.85;0.40;;;;;;;26.39;44.32;99321.13;5044494;27;96834;-71
2023/08/03 10:17:07;;;;;;;2.85;0.47;;;;;;;26.74;44.17;99313.19;5051724;27;96874;-72
2023/08/03 10:19:34;;;;;;;3.03;0.45;;;;;;;27.50;42.45;99331.47;5054657;27;101601;-71
2023/08/03 10:22:01;;;;;;;1.95;0.40;;;;;;;27.40;42.38;99322.81;5044128;27;98826;-71
2023/08/03 10:24:28;;;;;;;4.28;0.43;;;;;;;27.47;42.26;99326.41;5055431;27;97179;-72
2023/08/03 10:27:16;;;;;;;3.88;0.50;;;;;;;26.99;42.85;99336.22;5051031;27;97097;-72
2023/08/03 10:29:57;;;;;;;1.42;0.40;;;;;;;27.43;41.31;99336.00;5056512;27;98851;-74
2023/08/03 10:32:27;;;;;;;5.63;0.40;;;;;;;27.31;41.25;99334.81;5051785;27;98781;-71
2023/08/03 10:34:58;;;;;;;2.05;0.20;;;;;;;27.45;40.73;99319.50;5048860;27;96776;-71
2023/08/03 10:37:24;;;;;;;1.25;0.30;;;;;;;26.84;41.58;99322.72;5050394;27;96883;-71
2023/08/03 10:39:53;;;;;;;2.95;0.40;;;;;;;26.60;42.38;99333.88;5052433;27;98817;-71
2023/08/03 10:42:22;;;;;;;0.93;0.28;;;;;;;26.94;41.89;99323.25;5039376;27;98761;-72
2023/08/03 10:44:48;;;;;;;1.73;0.52;;;;;;;26.90;42.05;99334.69;5053591;27;97401;-70
2023/08/03 10:47:31;;;;;;;3.13;0.30;;;;;;;27.27;42.07;99330.84;5043089;27;96760;-70
2023/08/03 10:49:58;;;;;;;2.38;0.40;;;;;;;27.35;42.69;99334.25;5049524;27;99224;-71
2023/08/03 10:52:29;;;;;;;4.72;0.47;;;;;;;27.76;42.98;99333.56;5055412;27;97975;-71
2023/08/03 10:54:57;;;;;;;2.25;0.30;;;;;;;28.06;42.47;99332.28;5053343;27;97076;-71
2023/08/03 10:57:26;;;;;;;1.98;0.55;;;;;;;27.66;42.90;99333.06;5042345;27;97335;-71
2023/08/03 10:59:54;;;;;;;8.32;0.60;;;;;;;27.49;42.29;99321.66;5055038;27;98878;-71
2023/08/03 11:02:28;;;;;;;3.70;0.60;;;;;;;27.28;43.77;99340.66;5042901;27;98839;-71
2023/08/03 11:04:57;;;;;;;1.92;0.20;;;;;;;26.84;44.26;99328.13;5046580;27;96776;-71
2023/08/03 11:07:26;;;;;;;1.13;0.35;;;;;;;26.75;43.08;99347.41;5046331;27;97227;-72
2023/08/03 11:09:53;;;;;;;1.30;0.30;;;;;;;26.98;43.24;99345.38;5046384;27;99252;-71
2023/08/03 11:12:22;;;;;;;5.07;0.50;;;;;;;27.12;42.83;99362.59;5046482;27;97911;-69
2023/08/03 11:14:50;;;;;;;1.15;0.32;;;;;;;27.06;42.43;99345.25;5046518;27;97296;-72
2023/08/03 11:17:19;;;;;;;3.83;0.50;;;;;;;27.42;41.28;99349.75;5047948;27;101816;-72
2023/08/03 11:19:46;;;;;;;0.20;0.20;;;;;;;27.21;41.80;99343.31;5051831;27;98871;-71
2023/08/03 11:22:14;;;;;;;1.73;0.50;;;;;;;26.89;41.58;99341.13;5041792;27;99397;-71
2023/08/03 11:24:42;;;;;;;2.78;0.40;;;;;;;26.90;41.90;99351.78;5048642;27;97880;-72
2023/08/03 11:27:10;;;;;;;3.08;0.40;;;;;;;26.80;44.04;99372.88;5049583;27;96892;-72
2023/08/03 11:29:37;;;;;;;10.20;0.68;;;;;;;26.82;46.38;99383.53;5040952;27;98913;-72
2023/08/03 11:32:04;;;;;;;4.07;0.28;;;;;;;26.56;47.96;99386.78;5039475;27;99316;-72
2023/08/03 11:34:31;;;;;;;0.85;0.32;;;;;;;26.29;48.00;99379.34;5039894;27;97034;-72